sensor_id;sensor_type;location;lat;lon;timestamp;P1;durP1;ratioP1;P2;durP2;ratioP2
20146;SDS011;10234;50.856;15.716;2023-04-15T00:00:13;3.08;;;2.17;;
20146;SDS011;10234;50.856;15.716;2023-04-15T00:02:40;2.22;;;2.03;;
20146;SDS011;10234;50.856;15.716;2023-04-15T00:05:08;1.55;;;1.45;;
20146;SDS011;10234;50.856;15.716;2023-04-15T00:07:36;2.65;;;1.85;;
20146;SDS011;10234;50.856;15.716;2023-04-15T00:10:04;3.20;;;1.85;;
20146;SDS011;10234;50.856;15.716;2023-04-15T00:12:32;1.67;;;1.50;;
20146;SDS011;10234;50.856;15.716;2023-04-15T00:14:59;3.00;;;2.30;;
20146;SDS011;10234;50.856;15.716;2023-04-15T00:17:26;4.45;;;2.45;;
20146;SDS011;10234;50.856;15.716;2023-04-15T00:19:53;3.85;;;2.25;;
20146;SDS011;10234;50.856;15.716;2023-04-15T00:22:20;4.43;;;2.17;;
20146;SDS011;10234;50.856;15.716;2023-04-15T00:24:48;3.15;;;2.00;;
20146;SDS011;10234;50.856;15.716;2023-04-15T00:27:15;1.73;;;1.58;;
20146;SDS011;10234;50.856;15.716;2023-04-15T00:29:42;2.00;;;1.80;;
20146;SDS011;10234;50.856;15.716;2023-04-15T00:32:09;1.75;;;1.52;;
20146;SDS011;10234;50.856;15.716;2023-04-15T00:34:36;1.67;;;1.38;;
20146;SDS011;10234;50.856;15.716;2023-04-15T00:37:03;2.13;;;1.08;;
20146;SDS011;10234;50.856;15.716;2023-04-15T00:39:30;1.05;;;1.05;;
20146;SDS011;10234;50.856;15.716;2023-04-15T00:41:58;1.27;;;0.73;;
20146;SDS011;10234;50.856;15.716;2023-04-15T00:44:25;1.13;;;0.90;;
20146;SDS011;10234;50.856;15.716;2023-04-15T00:46:53;0.70;;;0.70;;
20146;SDS011;10234;50.856;15.716;2023-04-15T00:49:20;0.82;;;0.80;;
20146;SDS011;10234;50.856;15.716;2023-04-15T00:51:47;1.90;;;1.02;;
20146;SDS011;10234;50.856;15.716;2023-04-15T00:54:14;1.45;;;1.20;;
20146;SDS011;10234;50.856;15.716;2023-04-15T00:56:42;0.93;;;0.93;;
20146;SDS011;10234;50.856;15.716;2023-04-15T00:59:10;1.23;;;1.13;;
20146;SDS011;10234;50.856;15.716;2023-04-15T01:01:37;0.63;;;0.63;;
20146;SDS011;10234;50.856;15.716;2023-04-15T01:04:04;1.55;;;1.45;;
20146;SDS011;10234;50.856;15.716;2023-04-15T01:06:31;1.77;;;1.17;;
20146;SDS011;10234;50.856;15.716;2023-04-15T01:08:58;0.68;;;0.68;;
20146;SDS011;10234;50.856;15.716;2023-04-15T01:11:26;0.82;;;0.60;;
20146;SDS011;10234;50.856;15.716;2023-04-15T01:13:54;0.85;;;0.85;;
20146;SDS011;10234;50.856;15.716;2023-04-15T01:16:25;0.50;;;0.50;;
20146;SDS011;10234;50.856;15.716;2023-04-15T01:18:52;0.80;;;0.80;;
20146;SDS011;10234;50.856;15.716;2023-04-15T01:21:19;2.30;;;0.82;;
20146;SDS011;10234;50.856;15.716;2023-04-15T01:23:47;0.90;;;0.90;;
20146;SDS011;10234;50.856;15.716;2023-04-15T01:26:17;0.70;;;0.70;;
20146;SDS011;10234;50.856;15.716;2023-04-15T01:28:45;0.50;;;0.50;;
20146;SDS011;10234;50.856;15.716;2023-04-15T01:31:14;0.63;;;0.63;;
20146;SDS011;10234;50.856;15.716;2023-04-15T01:33:41;0.80;;;0.80;;
20146;SDS011;10234;50.856;15.716;2023-04-15T01:36:08;0.75;;;0.75;;
20146;SDS011;10234;50.856;15.716;2023-04-15T01:38:36;4.22;;;1.13;;
20146;SDS011;10234;50.856;15.716;2023-04-15T01:41:03;0.80;;;0.80;;
20146;SDS011;10234;50.856;15.716;2023-04-15T01:43:33;2.08;;;1.30;;
20146;SDS011;10234;50.856;15.716;2023-04-15T01:46:00;0.93;;;0.93;;
20146;SDS011;10234;50.856;15.716;2023-04-15T01:48:27;1.35;;;0.80;;
20146;SDS011;10234;50.856;15.716;2023-04-15T01:50:54;0.88;;;0.88;;
20146;SDS011;10234;50.856;15.716;2023-04-15T01:53:22;1.08;;;1.00;;
20146;SDS011;10234;50.856;15.716;2023-04-15T01:55:49;1.23;;;1.10;;
20146;SDS011;10234;50.856;15.716;2023-04-15T01:58:17;1.27;;;0.80;;
20146;SDS011;10234;50.856;15.716;2023-04-15T02:00:46;1.13;;;1.13;;
20146;SDS011;10234;50.856;15.716;2023-04-15T02:03:12;0.57;;;0.57;;
20146;SDS011;10234;50.856;15.716;2023-04-15T02:05:39;0.30;;;0.30;;
20146;SDS011;10234;50.856;15.716;2023-04-15T02:08:06;0.40;;;0.40;;
20146;SDS011;10234;50.856;15.716;2023-04-15T02:10:33;0.85;;;0.50;;
20146;SDS011;10234;50.856;15.716;2023-04-15T02:13:00;0.88;;;0.88;;
20146;SDS011;10234;50.856;15.716;2023-04-15T02:15:27;0.30;;;0.30;;
20146;SDS011;10234;50.856;15.716;2023-04-15T02:17:56;0.57;;;0.57;;
20146;SDS011;10234;50.856;15.716;2023-04-15T02:20:24;0.75;;;0.60;;
20146;SDS011;10234;50.856;15.716;2023-04-15T02:22:51;0.57;;;0.57;;
20146;SDS011;10234;50.856;15.716;2023-04-15T02:25:18;0.38;;;0.38;;
20146;SDS011;10234;50.856;15.716;2023-04-15T02:27:45;0.30;;;0.30;;
20146;SDS011;10234;50.856;15.716;2023-04-15T02:30:12;0.30;;;0.30;;
20146;SDS011;10234;50.856;15.716;2023-04-15T02:32:39;0.32;;;0.32;;
20146;SDS011;10234;50.856;15.716;2023-04-15T02:35:10;0.30;;;0.30;;
20146;SDS011;10234;50.856;15.716;2023-04-15T02:37:37;0.45;;;0.45;;
20146;SDS011;10234;50.856;15.716;2023-04-15T02:40:07;0.40;;;0.40;;
20146;SDS011;10234;50.856;15.716;2023-04-15T02:42:36;0.60;;;0.40;;
20146;SDS011;10234;50.856;15.716;2023-04-15T02:45:03;0.38;;;0.38;;
20146;SDS011;10234;50.856;15.716;2023-04-15T02:47:31;0.40;;;0.40;;
20146;SDS011;10234;50.856;15.716;2023-04-15T02:49:58;0.40;;;0.40;;
20146;SDS011;10234;50.856;15.716;2023-04-15T02:52:27;0.32;;;0.32;;
20146;SDS011;10234;50.856;15.716;2023-04-15T02:54:54;0.30;;;0.30;;
20146;SDS011;10234;50.856;15.716;2023-04-15T02:57:24;0.30;;;0.30;;
20146;SDS011;10234;50.856;15.716;2023-04-15T02:59:51;0.25;;;0.25;;
20146;SDS011;10234;50.856;15.716;2023-04-15T03:02:18;0.40;;;0.40;;
20146;SDS011;10234;50.856;15.716;2023-04-15T03:04:45;0.30;;;0.30;;
20146;SDS011;10234;50.856;15.716;2023-04-15T03:07:12;0.38;;;0.38;;
20146;SDS011;10234;50.856;15.716;2023-04-15T03:09:40;0.30;;;0.30;;
20146;SDS011;10234;50.856;15.716;2023-04-15T03:12:07;0.30;;;0.30;;
20146;SDS011;10234;50.856;15.716;2023-04-15T03:14:34;0.45;;;0.45;;
20146;SDS011;10234;50.856;15.716;2023-04-15T03:17:01;0.25;;;0.25;;
20146;SDS011;10234;50.856;15.716;2023-04-15T03:19:28;2.75;;;0.40;;
20146;SDS011;10234;50.856;15.716;2023-04-15T03:21:55;0.40;;;0.40;;
20146;SDS011;10234;50.856;15.716;2023-04-15T03:24:22;0.30;;;0.30;;
20146;SDS011;10234;50.856;15.716;2023-04-15T03:26:51;0.32;;;0.32;;
20146;SDS011;10234;50.856;15.716;2023-04-15T03:29:19;0.30;;;0.30;;
20146;SDS011;10234;50.856;15.716;2023-04-15T03:31:46;0.20;;;0.20;;
20146;SDS011;10234;50.856;15.716;2023-04-15T03:34:12;0.73;;;0.55;;
20146;SDS011;10234;50.856;15.716;2023-04-15T03:36:39;0.40;;;0.40;;
20146;SDS011;10234;50.856;15.716;2023-04-15T03:39:06;0.50;;;0.50;;
20146;SDS011;10234;50.856;15.716;2023-04-15T03:41:33;0.40;;;0.40;;
20146;SDS011;10234;50.856;15.716;2023-04-15T03:44:02;0.70;;;0.70;;
20146;SDS011;10234;50.856;15.716;2023-04-15T03:46:29;0.47;;;0.47;;
20146;SDS011;10234;50.856;15.716;2023-04-15T03:48:56;0.20;;;0.20;;
20146;SDS011;10234;50.856;15.716;2023-04-15T03:51:22;0.22;;;0.22;;
20146;SDS011;10234;50.856;15.716;2023-04-15T03:53:50;0.22;;;0.22;;
20146;SDS011;10234;50.856;15.716;2023-04-15T03:56:17;0.40;;;0.40;;
20146;SDS011;10234;50.856;15.716;2023-04-15T03:58:44;0.20;;;0.20;;
20146;SDS011;10234;50.856;15.716;2023-04-15T04:01:12;0.32;;;0.32;;
20146;SDS011;10234;50.856;15.716;2023-04-15T04:03:39;0.50;;;0.50;;
20146;SDS011;10234;50.856;15.716;2023-04-15T04:06:06;0.55;;;0.50;;
20146;SDS011;10234;50.856;15.716;2023-04-15T04:08:33;0.50;;;0.50;;
20146;SDS011;10234;50.856;15.716;2023-04-15T04:11:00;0.65;;;0.65;;
20146;SDS011;10234;50.856;15.716;2023-04-15T04:13:26;0.40;;;0.40;;
20146;SDS011;10234;50.856;15.716;2023-04-15T04:15:53;0.30;;;0.30;;
20146;SDS011;10234;50.856;15.716;2023-04-15T04:18:21;0.55;;;0.55;;
20146;SDS011;10234;50.856;15.716;2023-04-15T04:20:48;0.80;;;0.80;;
20146;SDS011;10234;50.856;15.716;2023-04-15T04:23:15;0.30;;;0.30;;
20146;SDS011;10234;50.856;15.716;2023-04-15T04:25:42;0.50;;;0.47;;
20146;SDS011;10234;50.856;15.716;2023-04-15T04:28:09;0.30;;;0.30;;
20146;SDS011;10234;50.856;15.716;2023-04-15T04:30:36;0.40;;;0.30;;
20146;SDS011;10234;50.856;15.716;2023-04-15T04:33:03;0.40;;;0.40;;
20146;SDS011;10234;50.856;15.716;2023-04-15T04:35:32;0.40;;;0.40;;
20146;SDS011;10234;50.856;15.716;2023-04-15T04:38:01;0.40;;;0.40;;
20146;SDS011;10234;50.856;15.716;2023-04-15T04:40:28;0.50;;;0.50;;
20146;SDS011;10234;50.856;15.716;2023-04-15T04:42:55;0.63;;;0.63;;
20146;SDS011;10234;50.856;15.716;2023-04-15T04:45:22;0.60;;;0.60;;
20146;SDS011;10234;50.856;15.716;2023-04-15T04:47:50;1.75;;;0.50;;
20146;SDS011;10234;50.856;15.716;2023-04-15T04:50:16;1.38;;;0.60;;
20146;SDS011;10234;50.856;15.716;2023-04-15T04:52:44;0.30;;;0.30;;
20146;SDS011;10234;50.856;15.716;2023-04-15T04:55:11;0.40;;;0.40;;
20146;SDS011;10234;50.856;15.716;2023-04-15T04:57:38;0.45;;;0.45;;
20146;SDS011;10234;50.856;15.716;2023-04-15T05:00:05;0.80;;;0.63;;
20146;SDS011;10234;50.856;15.716;2023-04-15T05:02:33;0.63;;;0.63;;
20146;SDS011;10234;50.856;15.716;2023-04-15T05:05:00;2.63;;;0.40;;
20146;SDS011;10234;50.856;15.716;2023-04-15T05:07:27;0.38;;;0.38;;
20146;SDS011;10234;50.856;15.716;2023-04-15T05:09:55;0.28;;;0.28;;
20146;SDS011;10234;50.856;15.716;2023-04-15T05:12:22;0.40;;;0.40;;
20146;SDS011;10234;50.856;15.716;2023-04-15T05:14:50;0.52;;;0.52;;
20146;SDS011;10234;50.856;15.716;2023-04-15T05:17:17;0.40;;;0.40;;
20146;SDS011;10234;50.856;15.716;2023-04-15T05:19:44;0.50;;;0.50;;
20146;SDS011;10234;50.856;15.716;2023-04-15T05:22:11;0.60;;;0.60;;
20146;SDS011;10234;50.856;15.716;2023-04-15T05:24:38;0.60;;;0.60;;
20146;SDS011;10234;50.856;15.716;2023-04-15T05:27:06;0.45;;;0.45;;
20146;SDS011;10234;50.856;15.716;2023-04-15T05:29:35;0.60;;;0.60;;
20146;SDS011;10234;50.856;15.716;2023-04-15T05:32:02;0.52;;;0.52;;
20146;SDS011;10234;50.856;15.716;2023-04-15T05:34:29;3.22;;;0.50;;
20146;SDS011;10234;50.856;15.716;2023-04-15T05:36:56;0.73;;;0.68;;
20146;SDS011;10234;50.856;15.716;2023-04-15T05:39:23;1.38;;;0.60;;
20146;SDS011;10234;50.856;15.716;2023-04-15T05:41:50;0.55;;;0.50;;
20146;SDS011;10234;50.856;15.716;2023-04-15T05:44:18;1.25;;;0.70;;
20146;SDS011;10234;50.856;15.716;2023-04-15T05:46:45;0.50;;;0.50;;
20146;SDS011;10234;50.856;15.716;2023-04-15T05:49:12;0.95;;;0.70;;
20146;SDS011;10234;50.856;15.716;2023-04-15T05:51:39;0.63;;;0.63;;
20146;SDS011;10234;50.856;15.716;2023-04-15T05:54:06;0.30;;;0.30;;
20146;SDS011;10234;50.856;15.716;2023-04-15T05:56:33;0.40;;;0.40;;
20146;SDS011;10234;50.856;15.716;2023-04-15T05:59:00;0.50;;;0.50;;
20146;SDS011;10234;50.856;15.716;2023-04-15T06:01:29;0.40;;;0.40;;
20146;SDS011;10234;50.856;15.716;2023-04-15T06:03:56;0.40;;;0.40;;
20146;SDS011;10234;50.856;15.716;2023-04-15T06:06:23;0.95;;;0.45;;
20146;SDS011;10234;50.856;15.716;2023-04-15T06:08:51;0.43;;;0.43;;
20146;SDS011;10234;50.856;15.716;2023-04-15T06:11:19;0.50;;;0.50;;
20146;SDS011;10234;50.856;15.716;2023-04-15T06:13:48;0.40;;;0.40;;
20146;SDS011;10234;50.856;15.716;2023-04-15T06:16:15;0.30;;;0.30;;
20146;SDS011;10234;50.856;15.716;2023-04-15T06:18:45;0.50;;;0.50;;
20146;SDS011;10234;50.856;15.716;2023-04-15T06:21:12;0.47;;;0.47;;
20146;SDS011;10234;50.856;15.716;2023-04-15T06:23:39;0.32;;;0.32;;
20146;SDS011;10234;50.856;15.716;2023-04-15T06:26:06;0.47;;;0.47;;
20146;SDS011;10234;50.856;15.716;2023-04-15T06:28:32;0.30;;;0.30;;
20146;SDS011;10234;50.856;15.716;2023-04-15T06:31:00;0.65;;;0.65;;
20146;SDS011;10234;50.856;15.716;2023-04-15T06:33:27;0.43;;;0.30;;
20146;SDS011;10234;50.856;15.716;2023-04-15T06:35:55;0.40;;;0.40;;
20146;SDS011;10234;50.856;15.716;2023-04-15T06:38:22;0.40;;;0.40;;
20146;SDS011;10234;50.856;15.716;2023-04-15T06:40:49;0.30;;;0.30;;
20146;SDS011;10234;50.856;15.716;2023-04-15T06:43:16;1.95;;;0.40;;
20146;SDS011;10234;50.856;15.716;2023-04-15T06:45:42;0.30;;;0.30;;
20146;SDS011;10234;50.856;15.716;2023-04-15T06:48:10;0.22;;;0.22;;
20146;SDS011;10234;50.856;15.716;2023-04-15T06:50:37;0.22;;;0.22;;
20146;SDS011;10234;50.856;15.716;2023-04-15T06:53:05;0.85;;;0.65;;
20146;SDS011;10234;50.856;15.716;2023-04-15T06:55:32;0.20;;;0.20;;
20146;SDS011;10234;50.856;15.716;2023-04-15T06:57:59;0.20;;;0.20;;
20146;SDS011;10234;50.856;15.716;2023-04-15T07:00:25;0.30;;;0.30;;
20146;SDS011;10234;50.856;15.716;2023-04-15T07:02:53;0.50;;;0.50;;
20146;SDS011;10234;50.856;15.716;2023-04-15T07:05:20;0.30;;;0.30;;
20146;SDS011;10234;50.856;15.716;2023-04-15T07:07:47;0.50;;;0.40;;
20146;SDS011;10234;50.856;15.716;2023-04-15T07:10:15;0.40;;;0.40;;
20146;SDS011;10234;50.856;15.716;2023-04-15T07:12:42;0.50;;;0.50;;
20146;SDS011;10234;50.856;15.716;2023-04-15T07:15:09;0.32;;;0.32;;
20146;SDS011;10234;50.856;15.716;2023-04-15T07:17:36;0.35;;;0.35;;
20146;SDS011;10234;50.856;15.716;2023-04-15T07:20:03;0.45;;;0.45;;
20146;SDS011;10234;50.856;15.716;2023-04-15T07:22:31;0.65;;;0.65;;
20146;SDS011;10234;50.856;15.716;2023-04-15T07:24:58;1.17;;;0.80;;
20146;SDS011;10234;50.856;15.716;2023-04-15T07:27:26;0.50;;;0.50;;
20146;SDS011;10234;50.856;15.716;2023-04-15T07:29:53;0.50;;;0.50;;
20146;SDS011;10234;50.856;15.716;2023-04-15T07:32:20;1.27;;;0.45;;
20146;SDS011;10234;50.856;15.716;2023-04-15T07:34:47;0.50;;;0.50;;
20146;SDS011;10234;50.856;15.716;2023-04-15T07:37:14;1.13;;;0.57;;
20146;SDS011;10234;50.856;15.716;2023-04-15T07:39:41;0.50;;;0.50;;
20146;SDS011;10234;50.856;15.716;2023-04-15T07:42:08;0.38;;;0.38;;
20146;SDS011;10234;50.856;15.716;2023-04-15T07:44:37;0.43;;;0.40;;
20146;SDS011;10234;50.856;15.716;2023-04-15T07:47:03;0.40;;;0.40;;
20146;SDS011;10234;50.856;15.716;2023-04-15T07:49:31;0.55;;;0.55;;
20146;SDS011;10234;50.856;15.716;2023-04-15T07:51:58;0.50;;;0.40;;
20146;SDS011;10234;50.856;15.716;2023-04-15T07:54:25;0.75;;;0.52;;
20146;SDS011;10234;50.856;15.716;2023-04-15T07:56:52;0.50;;;0.50;;
20146;SDS011;10234;50.856;15.716;2023-04-15T07:59:20;0.63;;;0.40;;
20146;SDS011;10234;50.856;15.716;2023-04-15T08:01:48;0.65;;;0.65;;
20146;SDS011;10234;50.856;15.716;2023-04-15T08:04:15;0.52;;;0.40;;
20146;SDS011;10234;50.856;15.716;2023-04-15T08:06:42;0.50;;;0.50;;
20146;SDS011;10234;50.856;15.716;2023-04-15T08:09:09;0.90;;;0.40;;
20146;SDS011;10234;50.856;15.716;2023-04-15T08:11:36;0.40;;;0.40;;
20146;SDS011;10234;50.856;15.716;2023-04-15T08:14:03;0.50;;;0.50;;
20146;SDS011;10234;50.856;15.716;2023-04-15T08:16:31;0.55;;;0.55;;
20146;SDS011;10234;50.856;15.716;2023-04-15T08:18:59;0.35;;;0.35;;
20146;SDS011;10234;50.856;15.716;2023-04-15T08:21:26;0.40;;;0.40;;
20146;SDS011;10234;50.856;15.716;2023-04-15T08:23:55;0.85;;;0.22;;
20146;SDS011;10234;50.856;15.716;2023-04-15T08:26:22;0.40;;;0.30;;
20146;SDS011;10234;50.856;15.716;2023-04-15T08:28:49;0.40;;;0.40;;
20146;SDS011;10234;50.856;15.716;2023-04-15T08:31:17;0.40;;;0.40;;
20146;SDS011;10234;50.856;15.716;2023-04-15T08:33:44;0.40;;;0.40;;
20146;SDS011;10234;50.856;15.716;2023-04-15T08:36:12;0.30;;;0.30;;
20146;SDS011;10234;50.856;15.716;2023-04-15T08:38:39;0.73;;;0.40;;
20146;SDS011;10234;50.856;15.716;2023-04-15T08:41:08;0.38;;;0.30;;
20146;SDS011;10234;50.856;15.716;2023-04-15T08:43:42;0.43;;;0.40;;
20146;SDS011;10234;50.856;15.716;2023-04-15T08:46:18;0.40;;;0.40;;
20146;SDS011;10234;50.856;15.716;2023-04-15T08:48:45;0.30;;;0.28;;
20146;SDS011;10234;50.856;15.716;2023-04-15T08:51:14;0.45;;;0.45;;
20146;SDS011;10234;50.856;15.716;2023-04-15T08:53:42;0.40;;;0.40;;
20146;SDS011;10234;50.856;15.716;2023-04-15T08:56:11;0.50;;;0.20;;
20146;SDS011;10234;50.856;15.716;2023-04-15T08:58:40;0.50;;;0.50;;
20146;SDS011;10234;50.856;15.716;2023-04-15T09:01:08;0.73;;;0.60;;
20146;SDS011;10234;50.856;15.716;2023-04-15T09:03:36;0.90;;;0.60;;
20146;SDS011;10234;50.856;15.716;2023-04-15T09:06:04;0.20;;;0.20;;
20146;SDS011;10234;50.856;15.716;2023-04-15T09:08:32;0.20;;;0.20;;
20146;SDS011;10234;50.856;15.716;2023-04-15T09:11:00;0.30;;;0.30;;
20146;SDS011;10234;50.856;15.716;2023-04-15T09:13:27;0.10;;;0.10;;
20146;SDS011;10234;50.856;15.716;2023-04-15T09:15:54;0.52;;;0.52;;
20146;SDS011;10234;50.856;15.716;2023-04-15T09:18:28;0.30;;;0.30;;
20146;SDS011;10234;50.856;15.716;2023-04-15T09:20:56;0.47;;;0.47;;
20146;SDS011;10234;50.856;15.716;2023-04-15T09:23:30;2.38;;;1.08;;
20146;SDS011;10234;50.856;15.716;2023-04-15T09:25:59;0.40;;;0.40;;
20146;SDS011;10234;50.856;15.716;2023-04-15T09:28:27;0.30;;;0.30;;
20146;SDS011;10234;50.856;15.716;2023-04-15T09:30:54;0.38;;;0.38;;
20146;SDS011;10234;50.856;15.716;2023-04-15T09:33:22;0.20;;;0.20;;
20146;SDS011;10234;50.856;15.716;2023-04-15T09:35:59;0.30;;;0.30;;
20146;SDS011;10234;50.856;15.716;2023-04-15T09:38:27;0.30;;;0.30;;
20146;SDS011;10234;50.856;15.716;2023-04-15T09:40:56;0.20;;;0.20;;
20146;SDS011;10234;50.856;15.716;2023-04-15T09:43:35;0.43;;;0.43;;
20146;SDS011;10234;50.856;15.716;2023-04-15T09:46:03;0.40;;;0.40;;
20146;SDS011;10234;50.856;15.716;2023-04-15T09:48:30;0.45;;;0.40;;
20146;SDS011;10234;50.856;15.716;2023-04-15T09:50:57;0.30;;;0.30;;
20146;SDS011;10234;50.856;15.716;2023-04-15T09:53:25;0.40;;;0.40;;
20146;SDS011;10234;50.856;15.716;2023-04-15T09:55:52;0.43;;;0.43;;
20146;SDS011;10234;50.856;15.716;2023-04-15T09:58:22;0.40;;;0.40;;
20146;SDS011;10234;50.856;15.716;2023-04-15T10:00:51;0.50;;;0.50;;
20146;SDS011;10234;50.856;15.716;2023-04-15T10:03:19;0.40;;;0.40;;
20146;SDS011;10234;50.856;15.716;2023-04-15T10:05:47;0.63;;;0.47;;
20146;SDS011;10234;50.856;15.716;2023-04-15T10:08:16;0.40;;;0.40;;
20146;SDS011;10234;50.856;15.716;2023-04-15T10:10:44;0.40;;;0.40;;
20146;SDS011;10234;50.856;15.716;2023-04-15T10:13:12;0.30;;;0.30;;
20146;SDS011;10234;50.856;15.716;2023-04-15T10:15:44;1.58;;;0.40;;
20146;SDS011;10234;50.856;15.716;2023-04-15T10:18:14;0.28;;;0.28;;
20146;SDS011;10234;50.856;15.716;2023-04-15T10:20:43;1.30;;;0.30;;
20146;SDS011;10234;50.856;15.716;2023-04-15T10:23:11;0.28;;;0.28;;
20146;SDS011;10234;50.856;15.716;2023-04-15T10:25:38;0.17;;;0.17;;
20146;SDS011;10234;50.856;15.716;2023-04-15T10:28:05;0.20;;;0.20;;
20146;SDS011;10234;50.856;15.716;2023-04-15T10:30:33;0.30;;;0.30;;
20146;SDS011;10234;50.856;15.716;2023-04-15T10:33:01;0.20;;;0.20;;
20146;SDS011;10234;50.856;15.716;2023-04-15T10:35:29;0.10;;;0.10;;
20146;SDS011;10234;50.856;15.716;2023-04-15T10:37:57;0.20;;;0.20;;
20146;SDS011;10234;50.856;15.716;2023-04-15T10:40:25;0.20;;;0.20;;
20146;SDS011;10234;50.856;15.716;2023-04-15T10:42:55;0.28;;;0.28;;
20146;SDS011;10234;50.856;15.716;2023-04-15T10:45:24;0.20;;;0.20;;
20146;SDS011;10234;50.856;15.716;2023-04-15T10:47:53;0.20;;;0.20;;
20146;SDS011;10234;50.856;15.716;2023-04-15T10:50:22;0.28;;;0.20;;
20146;SDS011;10234;50.856;15.716;2023-04-15T10:52:52;0.30;;;0.30;;
20146;SDS011;10234;50.856;15.716;2023-04-15T10:55:20;0.20;;;0.20;;
20146;SDS011;10234;50.856;15.716;2023-04-15T10:57:50;0.20;;;0.20;;
20146;SDS011;10234;50.856;15.716;2023-04-15T11:00:19;0.20;;;0.20;;
20146;SDS011;10234;50.856;15.716;2023-04-15T11:02:51;0.20;;;0.20;;
20146;SDS011;10234;50.856;15.716;2023-04-15T11:05:19;0.20;;;0.20;;
20146;SDS011;10234;50.856;15.716;2023-04-15T11:07:52;0.20;;;0.20;;
20146;SDS011;10234;50.856;15.716;2023-04-15T11:13:23;0.20;;;0.20;;
20146;SDS011;10234;50.856;15.716;2023-04-15T11:15:56;0.20;;;0.20;;
20146;SDS011;10234;50.856;15.716;2023-04-15T11:18:25;0.20;;;0.20;;
20146;SDS011;10234;50.856;15.716;2023-04-15T11:20:55;0.32;;;0.20;;
20146;SDS011;10234;50.856;15.716;2023-04-15T11:23:27;0.25;;;0.25;;
20146;SDS011;10234;50.856;15.716;2023-04-15T11:25:56;0.40;;;0.40;;
20146;SDS011;10234;50.856;15.716;2023-04-15T11:28:24;0.30;;;0.30;;
20146;SDS011;10234;50.856;15.716;2023-04-15T11:30:53;0.20;;;0.20;;
20146;SDS011;10234;50.856;15.716;2023-04-15T11:33:20;0.25;;;0.25;;
20146;SDS011;10234;50.856;15.716;2023-04-15T11:35:49;0.22;;;0.22;;
20146;SDS011;10234;50.856;15.716;2023-04-15T11:38:17;0.20;;;0.20;;
20146;SDS011;10234;50.856;15.716;2023-04-15T11:40:46;0.30;;;0.30;;
20146;SDS011;10234;50.856;15.716;2023-04-15T11:43:13;0.30;;;0.30;;
20146;SDS011;10234;50.856;15.716;2023-04-15T11:45:49;0.20;;;0.20;;
20146;SDS011;10234;50.856;15.716;2023-04-15T11:48:18;0.25;;;0.25;;
20146;SDS011;10234;50.856;15.716;2023-04-15T11:50:45;0.20;;;0.20;;
20146;SDS011;10234;50.856;15.716;2023-04-15T11:53:21;0.30;;;0.30;;
20146;SDS011;10234;50.856;15.716;2023-04-15T11:55:50;0.32;;;0.32;;
20146;SDS011;10234;50.856;15.716;2023-04-15T11:58:18;0.30;;;0.30;;
20146;SDS011;10234;50.856;15.716;2023-04-15T12:00:47;0.30;;;0.30;;
20146;SDS011;10234;50.856;15.716;2023-04-15T12:03:19;0.28;;;0.28;;
20146;SDS011;10234;50.856;15.716;2023-04-15T12:11:41;0.30;;;0.30;;
20146;SDS011;10234;50.856;15.716;2023-04-15T12:14:15;0.20;;;0.20;;
20146;SDS011;10234;50.856;15.716;2023-04-15T12:16:48;0.40;;;0.40;;
20146;SDS011;10234;50.856;15.716;2023-04-15T12:19:21;0.40;;;0.40;;
20146;SDS011;10234;50.856;15.716;2023-04-15T12:21:50;0.30;;;0.30;;
20146;SDS011;10234;50.856;15.716;2023-04-15T12:24:19;0.20;;;0.20;;
20146;SDS011;10234;50.856;15.716;2023-04-15T12:26:49;0.73;;;0.28;;
20146;SDS011;10234;50.856;15.716;2023-04-15T12:29:17;0.30;;;0.30;;
20146;SDS011;10234;50.856;15.716;2023-04-15T12:31:45;0.30;;;0.30;;
20146;SDS011;10234;50.856;15.716;2023-04-15T12:34:14;0.20;;;0.20;;
20146;SDS011;10234;50.856;15.716;2023-04-15T12:36:41;0.20;;;0.20;;
20146;SDS011;10234;50.856;15.716;2023-04-15T12:39:09;0.40;;;0.40;;
20146;SDS011;10234;50.856;15.716;2023-04-15T12:41:35;0.30;;;0.30;;
20146;SDS011;10234;50.856;15.716;2023-04-15T12:44:04;0.20;;;0.20;;
20146;SDS011;10234;50.856;15.716;2023-04-15T12:46:31;0.30;;;0.30;;
20146;SDS011;10234;50.856;15.716;2023-04-15T12:48:58;0.40;;;0.40;;
20146;SDS011;10234;50.856;15.716;2023-04-15T12:51:25;0.30;;;0.30;;
20146;SDS011;10234;50.856;15.716;2023-04-15T12:53:52;0.40;;;0.40;;
20146;SDS011;10234;50.856;15.716;2023-04-15T12:56:19;0.20;;;0.20;;
20146;SDS011;10234;50.856;15.716;2023-04-15T12:58:46;0.20;;;0.20;;
20146;SDS011;10234;50.856;15.716;2023-04-15T13:01:15;0.28;;;0.28;;
20146;SDS011;10234;50.856;15.716;2023-04-15T13:03:41;0.30;;;0.30;;
20146;SDS011;10234;50.856;15.716;2023-04-15T13:06:08;0.30;;;0.30;;
20146;SDS011;10234;50.856;15.716;2023-04-15T13:08:35;0.20;;;0.20;;
20146;SDS011;10234;50.856;15.716;2023-04-15T13:11:02;0.45;;;0.45;;
20146;SDS011;10234;50.856;15.716;2023-04-15T13:13:30;0.30;;;0.30;;
20146;SDS011;10234;50.856;15.716;2023-04-15T13:15:57;0.25;;;0.25;;
20146;SDS011;10234;50.856;15.716;2023-04-15T13:18:25;0.25;;;0.25;;
20146;SDS011;10234;50.856;15.716;2023-04-15T13:20:52;0.30;;;0.30;;
20146;SDS011;10234;50.856;15.716;2023-04-15T13:23:19;0.30;;;0.30;;
20146;SDS011;10234;50.856;15.716;2023-04-15T13:25:46;0.60;;;0.30;;
20146;SDS011;10234;50.856;15.716;2023-04-15T13:28:13;0.30;;;0.20;;
20146;SDS011;10234;50.856;15.716;2023-04-15T13:30:40;0.20;;;0.20;;
20146;SDS011;10234;50.856;15.716;2023-04-15T13:33:08;0.28;;;0.28;;
20146;SDS011;10234;50.856;15.716;2023-04-15T13:35:36;0.30;;;0.30;;
20146;SDS011;10234;50.856;15.716;2023-04-15T13:38:03;0.30;;;0.30;;
20146;SDS011;10234;50.856;15.716;2023-04-15T13:40:30;0.40;;;0.22;;
20146;SDS011;10234;50.856;15.716;2023-04-15T13:42:57;0.30;;;0.30;;
20146;SDS011;10234;50.856;15.716;2023-04-15T13:45:24;0.20;;;0.20;;
20146;SDS011;10234;50.856;15.716;2023-04-15T13:47:51;0.22;;;0.22;;
20146;SDS011;10234;50.856;15.716;2023-04-15T13:50:18;0.25;;;0.25;;
20146;SDS011;10234;50.856;15.716;2023-04-15T13:52:47;0.40;;;0.40;;
20146;SDS011;10234;50.856;15.716;2023-04-15T13:55:14;0.30;;;0.30;;
20146;SDS011;10234;50.856;15.716;2023-04-15T13:57:41;1.05;;;0.90;;
20146;SDS011;10234;50.856;15.716;2023-04-15T14:00:08;1.00;;;0.88;;
20146;SDS011;10234;50.856;15.716;2023-04-15T14:02:36;0.65;;;0.65;;
20146;SDS011;10234;50.856;15.716;2023-04-15T14:05:03;0.93;;;0.90;;
20146;SDS011;10234;50.856;15.716;2023-04-15T14:07:30;0.55;;;0.55;;
20146;SDS011;10234;50.856;15.716;2023-04-15T14:09:59;0.63;;;0.63;;
20146;SDS011;10234;50.856;15.716;2023-04-15T14:12:26;0.70;;;0.70;;
20146;SDS011;10234;50.856;15.716;2023-04-15T14:14:52;0.85;;;0.52;;
20146;SDS011;10234;50.856;15.716;2023-04-15T14:17:20;0.73;;;0.70;;
20146;SDS011;10234;50.856;15.716;2023-04-15T14:19:46;1.13;;;0.88;;
20146;SDS011;10234;50.856;15.716;2023-04-15T14:22:13;0.63;;;0.63;;
20146;SDS011;10234;50.856;15.716;2023-04-15T14:24:41;0.80;;;0.73;;
20146;SDS011;10234;50.856;15.716;2023-04-15T14:27:09;0.77;;;0.70;;
20146;SDS011;10234;50.856;15.716;2023-04-15T14:29:36;0.88;;;0.73;;
20146;SDS011;10234;50.856;15.716;2023-04-15T14:32:04;1.23;;;1.00;;
20146;SDS011;10234;50.856;15.716;2023-04-15T14:34:31;1.10;;;1.00;;
20146;SDS011;10234;50.856;15.716;2023-04-15T14:36:58;1.15;;;1.05;;
20146;SDS011;10234;50.856;15.716;2023-04-15T14:39:25;0.65;;;0.63;;
20146;SDS011;10234;50.856;15.716;2023-04-15T14:41:52;2.03;;;1.10;;
20146;SDS011;10234;50.856;15.716;2023-04-15T14:44:21;1.20;;;0.85;;